Kezdőlap
METAR-TAF:

METAR-TAF

Repülőterek :

Safford, Arizona, Amerikai Egyesült Államok

földrajzi szélesség: 32-51-26N, földrajzi hosszúság: 109-38-08W, magasság: 968 m

Jelenlegi meteorológiai megfigyelések

A jelentés 25 perccel ezelõtt készült, 00:51 UTC
Déli szél 8 kt
Hőmérséklet 36°C
Páratartalom 25%
Légköri nyomás 1012 hPa
Látótávolság: 16.1 km
Derült ég

METAR: KSAD 230051Z AUTO 19008KT 10SM CLR 36/13 A2988 RMK AO2 SLP057 T03610133 $

Idő: 18:16 (01:16 UTC)


TAF: hiányzik

Meteorológiai megfigyelések és előrejelzések több, mint 4000 repülőtéren (METAR és TAF jelentéseket).

A térképen piros és sárga pontok jelzik az elérhető meteorológiai állomásokat.

Mozgassa az egeret a pont fölött, hogy megjelenjen az állomás neve.

Azután kattintson az időjárási megfigyelések és előrejelzések megtekintéséhez.

A térkép megváltoztatása: kattintson a fekete keresztel jelölt zöld gombra ráközelítéshez, a vonallal jelölt zöld gombra távolításhoz, vagy a zöld nyilakra a szomszédos térképek eléréséhez.


METAR-TAF: